createdAt,value
2019-03-30T00:02:27.698Z,95860.64
2019-03-30T00:04:59.455Z,95859.63
2019-03-30T00:07:31.562Z,95854.67
2019-03-30T00:10:04.481Z,95855.60
2019-03-30T00:12:36.266Z,95858.55
2019-03-30T00:15:08.466Z,95851.98
2019-03-30T00:17:40.746Z,95860.95
2019-03-30T00:20:12.625Z,95853.34
2019-03-30T00:22:44.846Z,95856.50
2019-03-30T00:25:16.888Z,95856.29
2019-03-30T00:27:48.695Z,95861.09
2019-03-30T00:30:20.587Z,95862.11
2019-03-30T00:32:52.405Z,95855.86
2019-03-30T00:35:24.154Z,95852.05
2019-03-30T00:37:56.306Z,95846.99
2019-03-30T00:40:28.453Z,95835.83
2019-03-30T00:43:00.590Z,95836.26
2019-03-30T00:45:32.341Z,95837.09
2019-03-30T00:48:04.142Z,95832.09
2019-03-30T00:50:36.164Z,95838.16
2019-03-30T00:53:08.088Z,95836.15
2019-03-30T00:55:42.545Z,95836.08
2019-03-30T00:58:14.327Z,95840.61
2019-03-30T01:00:46.109Z,95840.84
2019-03-30T01:03:18.182Z,95838.13
2019-03-30T01:05:50.307Z,95834.29
2019-03-30T01:08:22.404Z,95833.17
2019-03-30T01:10:54.424Z,95830.95
2019-03-30T01:13:26.467Z,95832.70
2019-03-30T01:15:58.547Z,95822.80
2019-03-30T01:18:30.668Z,95825.17
2019-03-30T01:21:02.542Z,95827.66
2019-03-30T01:23:34.695Z,95830.09
2019-03-30T01:26:06.822Z,95833.03
2019-03-30T01:28:38.837Z,95837.63
2019-03-30T01:31:10.774Z,95830.91
2019-03-30T01:33:42.761Z,95834.61
2019-03-30T01:36:14.865Z,95831.16
2019-03-30T01:38:47.182Z,95835.41
2019-03-30T01:41:19.166Z,95831.27
2019-03-30T01:43:51.353Z,95839.02
2019-03-30T01:46:25.754Z,95839.31
2019-03-30T01:48:57.587Z,95844.84
2019-03-30T01:51:29.644Z,95844.52
2019-03-30T01:54:01.586Z,95849.79
2019-03-30T01:56:33.542Z,95841.61
2019-03-30T01:59:05.676Z,95843.28
2019-03-30T02:01:37.689Z,95852.12
2019-03-30T02:04:09.875Z,95851.30
2019-03-30T02:06:42.141Z,95842.50
2019-03-30T02:09:14.194Z,95838.09
2019-03-30T02:11:46.287Z,95843.64
2019-03-30T02:14:19.315Z,95838.98
2019-03-30T02:16:51.448Z,95835.50
2019-03-30T02:19:23.500Z,95836.19
2019-03-30T02:21:55.421Z,95844.19
2019-03-30T02:24:27.376Z,95833.67
2019-03-30T02:26:59.404Z,95842.14
2019-03-30T02:29:31.702Z,95839.20
2019-03-30T02:32:03.779Z,95842.74
2019-03-30T02:34:35.788Z,95842.74
2019-03-30T02:37:08.044Z,95849.09
2019-03-30T02:39:40.263Z,95849.95
2019-03-30T02:42:12.306Z,95842.59
2019-03-30T02:44:44.377Z,95840.47
2019-03-30T02:47:16.278Z,95848.60
2019-03-30T02:49:48.175Z,95841.30
2019-03-30T02:52:20.137Z,95838.11
2019-03-30T02:54:51.947Z,95833.95
2019-03-30T02:57:24.048Z,95840.84
2019-03-30T02:59:55.860Z,95843.36
2019-03-30T03:02:27.706Z,95843.19
2019-03-30T03:04:59.575Z,95842.52
2019-03-30T03:07:31.321Z,95843.73
2019-03-30T03:10:03.670Z,95846.22
2019-03-30T03:12:35.789Z,95844.30
2019-03-30T03:15:08.010Z,95848.71
2019-03-30T03:17:41.015Z,95848.45
2019-03-30T03:20:13.389Z,95848.36
2019-03-30T03:22:45.382Z,95849.36
2019-03-30T03:25:17.363Z,95838.21
2019-03-30T03:27:49.233Z,95843.92
2019-03-30T03:30:21.539Z,95844.86
2019-03-30T03:32:53.624Z,95840.90
2019-03-30T03:35:25.489Z,95842.92
2019-03-30T03:37:57.477Z,95840.41
2019-03-30T03:40:29.486Z,95843.75
2019-03-30T03:43:01.618Z,95837.94
2019-03-30T03:45:34.547Z,95844.29
2019-03-30T03:48:06.766Z,95844.66
2019-03-30T03:50:44.609Z,95842.34
2019-03-30T03:53:17.336Z,95843.47
2019-03-30T03:55:49.586Z,95845.13
2019-03-30T03:58:24.646Z,95846.67
2019-03-30T04:00:58.531Z,95848.69
2019-03-30T04:03:32.595Z,95844.46
2019-03-30T04:06:07.201Z,95849.91
2019-03-30T04:08:48.224Z,95851.03
2019-03-30T04:11:23.907Z,95850.57
2019-03-30T04:13:57.781Z,95855.53
2019-03-30T04:16:30.021Z,95854.70
2019-03-30T04:19:02.280Z,95860.13
2019-03-30T04:21:43.933Z,95867.41
2019-03-30T04:24:08.407Z,95868.33
2019-03-30T04:26:40.415Z,95869.79
2019-03-30T04:29:12.455Z,95870.91
2019-03-30T04:31:44.476Z,95874.95
2019-03-30T04:35:19.052Z,95881.49
2019-03-30T04:37:50.884Z,95884.95
2019-03-30T04:40:22.711Z,95879.38
2019-03-30T04:42:54.851Z,95882.58
2019-03-30T04:45:27.149Z,95884.07
2019-03-30T04:47:59.208Z,95878.91
2019-03-30T04:50:31.311Z,95882.58
2019-03-30T04:53:04.386Z,95877.89
2019-03-30T04:55:36.560Z,95883.91
2019-03-30T04:58:09.417Z,95884.64
2019-03-30T05:00:44.580Z,95885.56
2019-03-30T05:03:16.803Z,95890.36
2019-03-30T05:05:48.773Z,95887.41
2019-03-30T05:08:20.740Z,95893.87
2019-03-30T05:10:52.489Z,95891.10
2019-03-30T05:13:24.227Z,95893.53
2019-03-30T05:15:56.213Z,95894.63
2019-03-30T05:18:28.141Z,95890.45
2019-03-30T05:20:59.917Z,95898.91
2019-03-30T05:23:31.784Z,95898.25
2019-03-30T05:26:03.563Z,95889.56
2019-03-30T05:28:35.335Z,95890.34
2019-03-30T05:31:07.270Z,95895.21
2019-03-30T05:33:39.497Z,95895.95
2019-03-30T05:36:11.386Z,95890.31
2019-03-30T05:38:43.129Z,95884.97
2019-03-30T05:41:14.992Z,95884.81
2019-03-30T05:43:46.771Z,95880.86
2019-03-30T05:46:18.791Z,95881.85
2019-03-30T05:48:50.775Z,95878.16
2019-03-30T05:51:22.845Z,95878.60
2019-03-30T05:53:54.667Z,95884.91
2019-03-30T05:56:27.096Z,95882.88
2019-03-30T05:58:59.250Z,95870.78
2019-03-30T06:01:31.304Z,95876.69
2019-03-30T06:04:03.482Z,95874.40
2019-03-30T06:06:35.514Z,95870.09
2019-03-30T06:09:08.738Z,95875.41
2019-03-30T06:11:40.861Z,95873.28
2019-03-30T06:14:13.018Z,95863.63
2019-03-30T06:16:45.097Z,95857.26
2019-03-30T06:19:17.139Z,95854.98
2019-03-30T06:21:57.120Z,95866.04
2019-03-30T06:24:28.923Z,95860.66
2019-03-30T06:27:01.011Z,95862.85
2019-03-30T06:29:32.964Z,95878.35
2019-03-30T06:32:05.362Z,95865.52
2019-03-30T06:34:37.351Z,95869.69
2019-03-30T06:37:09.403Z,95868.27
2019-03-30T06:39:44.671Z,95868.72
2019-03-30T06:42:16.640Z,95865.09
2019-03-30T06:44:48.524Z,95863.20
2019-03-30T06:47:20.541Z,95866.33
2019-03-30T06:49:52.313Z,95860.80
2019-03-30T06:52:24.248Z,95862.82
2019-03-30T06:54:56.167Z,95867.42
2019-03-30T06:57:27.946Z,95870.80
2019-03-30T06:59:59.740Z,95872.97
2019-03-30T07:02:31.676Z,95866.34
2019-03-30T07:05:03.640Z,95872.53
2019-03-30T07:07:36.721Z,95865.70
2019-03-30T07:10:08.870Z,95867.00
2019-03-30T07:12:46.167Z,95868.11
2019-03-30T07:15:17.928Z,95868.69
2019-03-30T07:17:50.079Z,95866.91
2019-03-30T07:20:31.616Z,95862.55
2019-03-30T07:23:11.887Z,95862.66
2019-03-30T07:25:37.361Z,95855.75
2019-03-30T07:28:09.567Z,95857.56
2019-03-30T07:30:41.664Z,95856.30
2019-03-30T07:33:13.975Z,95845.33
2019-03-30T07:35:46.153Z,95849.87
2019-03-30T07:41:08.910Z,95851.36
2019-03-30T07:43:41.282Z,95852.06
2019-03-30T07:46:13.562Z,95836.13
2019-03-30T07:48:47.487Z,95844.80
2019-03-30T07:51:19.555Z,95839.37
2019-03-30T07:53:51.520Z,95840.85
2019-03-30T07:56:23.511Z,95839.77
2019-03-30T07:58:56.653Z,95833.11
2019-03-30T08:01:28.750Z,95836.50
2019-03-30T08:04:00.725Z,95838.13
2019-03-30T08:06:32.925Z,95848.45
2019-03-30T08:09:06.297Z,95841.00
2019-03-30T08:11:38.656Z,95842.11
2019-03-30T08:14:10.805Z,95843.40
2019-03-30T08:16:43.087Z,95834.47
2019-03-30T08:19:15.148Z,95827.75
2019-03-30T08:21:47.215Z,95815.05
2019-03-30T08:24:19.152Z,95832.06
2019-03-30T08:26:51.024Z,95833.19
2019-03-30T08:29:22.828Z,95840.27
2019-03-30T08:31:54.582Z,95833.38
2019-03-30T08:34:26.462Z,95837.53
2019-03-30T08:36:59.422Z,95839.17
2019-03-30T08:39:31.333Z,95838.13
2019-03-30T08:42:03.770Z,95837.16
2019-03-30T08:44:35.649Z,95835.97
2019-03-30T08:47:07.586Z,95836.16
2019-03-30T08:49:39.672Z,95837.77
2019-03-30T08:52:11.465Z,95833.38
2019-03-30T08:54:43.274Z,95828.68
2019-03-30T08:57:15.309Z,95826.11
2019-03-30T08:59:47.356Z,95817.45
2019-03-30T09:02:19.336Z,95813.59
2019-03-30T09:04:51.886Z,95813.02
2019-03-30T09:07:27.047Z,95817.31
2019-03-30T09:09:58.671Z,95805.44
2019-03-30T09:12:30.166Z,95802.23
2019-03-30T09:15:01.688Z,95800.34
2019-03-30T09:17:37.037Z,95794.59
2019-03-30T09:20:07.841Z,95791.64
2019-03-30T09:22:39.554Z,95792.23
2019-03-30T09:25:11.368Z,95790.05
2019-03-30T09:27:43.212Z,95792.91
2019-03-30T09:30:15.125Z,95787.59
2019-03-30T09:32:47.019Z,95789.61
2019-03-30T09:35:19.244Z,95768.77
2019-03-30T09:37:52.166Z,95785.00
2019-03-30T09:40:24.033Z,95783.02
2019-03-30T09:42:55.885Z,95772.89
2019-03-30T09:45:27.482Z,95776.48
2019-03-30T09:48:09.682Z,95769.36
2019-03-30T09:50:42.880Z,95774.67
2019-03-30T09:53:14.776Z,95773.83
2019-03-30T09:55:46.442Z,95773.78
2019-03-30T09:58:18.104Z,95774.72
2019-03-30T10:00:49.746Z,95772.45
2019-03-30T10:03:22.746Z,95760.77
2019-03-30T10:05:54.320Z,95754.05
2019-03-30T10:08:26.123Z,95753.88
2019-03-30T10:10:57.842Z,95744.31
2019-03-30T10:13:29.717Z,95737.11
2019-03-30T10:16:01.735Z,95741.36
2019-03-30T10:18:33.526Z,95741.36
2019-03-30T10:21:05.531Z,95731.02
2019-03-30T10:23:37.447Z,95731.70
2019-03-30T10:26:09.657Z,95723.63
2019-03-30T10:28:41.552Z,95718.34
2019-03-30T10:31:13.402Z,95720.83
2019-03-30T10:33:45.405Z,95707.35
2019-03-30T10:36:17.256Z,95707.35
2019-03-30T10:38:49.080Z,95705.22
2019-03-30T10:41:20.939Z,95695.36
2019-03-30T10:43:52.924Z,95702.11
2019-03-30T10:46:24.537Z,95708.52
2019-03-30T10:48:56.339Z,95698.66
2019-03-30T10:51:28.175Z,95699.65
2019-03-30T10:54:00.187Z,95683.88
2019-03-30T10:56:32.132Z,95699.13
2019-03-30T10:59:04.397Z,95693.10
2019-03-30T11:01:36.969Z,95679.95
2019-03-30T11:04:09.477Z,95686.16
2019-03-30T11:06:41.383Z,95668.12
2019-03-30T11:09:13.410Z,95679.30
2019-03-30T11:11:45.234Z,95666.82
2019-03-30T11:14:17.071Z,95648.08
2019-03-30T11:16:48.906Z,95648.08
2019-03-30T11:19:21.074Z,95652.98
2019-03-30T11:21:52.922Z,95642.31
2019-03-30T11:24:24.818Z,95642.31
2019-03-30T11:26:56.761Z,95653.33
2019-03-30T11:29:28.615Z,95636.86
2019-03-30T11:32:00.720Z,95640.48
2019-03-30T11:34:33.324Z,95633.34
2019-03-30T11:37:05.216Z,95630.14
2019-03-30T11:39:37.100Z,95630.83
2019-03-30T11:42:08.615Z,95634.18
2019-03-30T11:44:40.278Z,95623.40
2019-03-30T11:47:11.927Z,95613.85
2019-03-30T11:49:43.590Z,95610.13
2019-03-30T11:52:15.465Z,95610.13
2019-03-30T11:54:47.336Z,95602.02
2019-03-30T11:57:18.939Z,95607.12
2019-03-30T11:59:50.913Z,95597.19
2019-03-30T12:02:28.259Z,95597.19
2019-03-30T12:04:55.888Z,95597.83
2019-03-30T12:07:27.702Z,95603.08
2019-03-30T12:09:59.289Z,95600.63
2019-03-30T12:12:30.836Z,95597.03
2019-03-30T12:15:02.755Z,95591.12
2019-03-30T12:17:34.925Z,95603.27
2019-03-30T12:20:06.765Z,95596.72
2019-03-30T12:22:38.704Z,95582.92
2019-03-30T12:25:10.530Z,95584.73
2019-03-30T12:27:43.093Z,95578.48
2019-03-30T12:30:15.954Z,95573.73
2019-03-30T12:32:47.664Z,95568.97
2019-03-30T12:35:20.115Z,95570.28
2019-03-30T12:37:51.759Z,95561.56
2019-03-30T12:40:23.444Z,95568.66
2019-03-30T12:42:55.295Z,95559.81
2019-03-30T12:45:26.882Z,95559.45
2019-03-30T12:47:58.415Z,95550.93
2019-03-30T12:50:30.143Z,95548.30
2019-03-30T12:53:02.265Z,95550.61
2019-03-30T12:55:48.632Z,95547.80
2019-03-30T12:58:13.375Z,95540.55
2019-03-30T13:00:45.047Z,95538.07
2019-03-30T13:03:16.691Z,95529.87
2019-03-30T13:05:49.556Z,95536.76
2019-03-30T13:08:21.654Z,95524.55
2019-03-30T13:10:53.255Z,95524.55
2019-03-30T13:13:25.050Z,95528.61
2019-03-30T13:15:56.639Z,95522.47
2019-03-30T13:18:28.175Z,95530.16
2019-03-30T13:21:02.144Z,95532.18
2019-03-30T13:23:33.727Z,95528.88
2019-03-30T13:26:05.654Z,95522.70
2019-03-30T13:28:37.490Z,95521.07
2019-03-30T13:31:09.269Z,95526.99
2019-03-30T13:33:40.932Z,95525.52
2019-03-30T13:36:14.410Z,95524.20
2019-03-30T13:38:46.098Z,95523.38
2019-03-30T13:41:17.923Z,95525.34
2019-03-30T13:43:49.670Z,95516.17
2019-03-30T13:46:21.657Z,95530.25
2019-03-30T13:48:53.536Z,95521.09
2019-03-30T13:51:25.181Z,95514.36
2019-03-30T13:53:56.829Z,95521.08
2019-03-30T13:56:28.517Z,95519.43
2019-03-30T13:59:00.613Z,95514.34
2019-03-30T14:01:32.122Z,95504.69
2019-03-30T14:04:04.766Z,95514.03
2019-03-30T14:06:36.703Z,95508.95
2019-03-30T14:09:09.757Z,95503.15
2019-03-30T14:11:41.815Z,95499.55
2019-03-30T14:14:13.553Z,95507.30
2019-03-30T14:16:45.258Z,95498.95
2019-03-30T14:19:17.054Z,95499.94
2019-03-30T14:21:48.861Z,95489.75
2019-03-30T14:24:20.903Z,95509.61
2019-03-30T14:26:52.618Z,95493.55
2019-03-30T14:29:24.587Z,95500.75
2019-03-30T14:31:56.227Z,95499.45
2019-03-30T14:34:27.963Z,95499.75
2019-03-30T14:37:01.694Z,95498.78
2019-03-30T14:39:33.936Z,95507.64
2019-03-30T14:42:06.180Z,95503.87
2019-03-30T14:44:38.847Z,95497.48
2019-03-30T14:47:10.674Z,95498.13
2019-03-30T14:49:42.479Z,95495.16
2019-03-30T14:52:14.356Z,95493.00
2019-03-30T14:54:52.622Z,95497.27
2019-03-30T14:57:19.685Z,95497.44
2019-03-30T14:59:51.219Z,95490.70
2019-03-30T15:02:23.076Z,95489.87
2019-03-30T15:04:54.847Z,95485.94
2019-03-30T15:07:26.727Z,95486.28
2019-03-30T15:09:58.456Z,95496.27
2019-03-30T15:12:30.090Z,95495.45
2019-03-30T15:15:01.642Z,95493.64
2019-03-30T15:17:33.094Z,95487.59
2019-03-30T15:20:04.882Z,95503.48
2019-03-30T15:22:36.560Z,95496.72
2019-03-30T15:25:09.020Z,95497.84
2019-03-30T15:27:40.697Z,95491.84
2019-03-30T15:30:12.679Z,95489.20
2019-03-30T15:32:44.437Z,95497.06
2019-03-30T15:35:16.364Z,95490.65
2019-03-30T15:37:48.274Z,95495.55
2019-03-30T15:40:19.963Z,95497.01
2019-03-30T15:42:51.684Z,95492.73
2019-03-30T15:45:23.380Z,95497.13
2019-03-30T15:47:52.269Z,95497.42
2019-03-30T15:50:23.891Z,95498.92
2019-03-30T15:52:55.494Z,95505.50
2019-03-30T15:55:26.974Z,95504.16
2019-03-30T15:57:58.562Z,95499.19
2019-03-30T16:00:30.227Z,95508.70
2019-03-30T16:03:02.089Z,95509.86
2019-03-30T16:05:33.859Z,95503.67
2019-03-30T16:08:05.509Z,95508.27
2019-03-30T16:10:39.266Z,95502.86
2019-03-30T16:13:14.407Z,95499.84
2019-03-30T16:15:44.775Z,95512.07
2019-03-30T16:18:16.657Z,95507.08
2019-03-30T16:20:48.640Z,95511.47
2019-03-30T16:23:20.697Z,95519.59
2019-03-30T16:25:52.380Z,95524.09
2019-03-30T16:28:23.994Z,95512.88
2019-03-30T16:30:56.124Z,95520.63
2019-03-30T16:33:28.069Z,95526.91
2019-03-30T16:36:02.710Z,95519.87
2019-03-30T16:38:34.305Z,95524.59
2019-03-30T16:41:06.079Z,95523.61
2019-03-30T16:43:37.561Z,95530.03
2019-03-30T16:46:09.465Z,95527.87
2019-03-30T16:48:41.254Z,95530.81
2019-03-30T16:51:12.881Z,95537.69
2019-03-30T16:53:47.272Z,95539.56
2019-03-30T16:56:18.463Z,95538.58
2019-03-30T16:58:50.726Z,95544.41
2019-03-30T17:01:22.537Z,95540.81
2019-03-30T17:03:54.592Z,95530.45
2019-03-30T17:06:26.402Z,95537.70
2019-03-30T17:08:58.002Z,95537.59
2019-03-30T17:11:29.485Z,95535.52
2019-03-30T17:14:01.294Z,95534.27
2019-03-30T17:16:33.803Z,95533.06
2019-03-30T17:19:05.652Z,95535.30
2019-03-30T17:21:37.765Z,95529.80
2019-03-30T17:24:09.874Z,95533.51
2019-03-30T17:26:41.908Z,95537.94
2019-03-30T17:29:13.487Z,95541.96
2019-03-30T17:31:45.194Z,95533.84
2019-03-30T17:34:16.798Z,95541.45
2019-03-30T17:36:48.777Z,95541.08
2019-03-30T17:39:21.751Z,95541.08
2019-03-30T17:41:53.745Z,95544.41
2019-03-30T17:44:25.894Z,95554.78
2019-03-30T17:46:57.636Z,95559.28
2019-03-30T17:49:29.462Z,95560.48
2019-03-30T17:52:01.455Z,95564.77
2019-03-30T17:54:33.669Z,95558.08
2019-03-30T17:57:05.789Z,95559.88
2019-03-30T17:59:37.741Z,95561.86
2019-03-30T18:02:09.816Z,95570.75
2019-03-30T18:04:41.889Z,95564.92
2019-03-30T18:07:13.967Z,95571.05
2019-03-30T18:09:45.802Z,95570.14
2019-03-30T18:12:20.405Z,95568.38
2019-03-30T18:14:52.550Z,95566.50
2019-03-30T18:17:24.692Z,95558.02
2019-03-30T18:19:56.891Z,95564.80
2019-03-30T18:22:28.871Z,95564.34
2019-03-30T18:25:00.703Z,95562.64
2019-03-30T18:27:33.666Z,95565.31
2019-03-30T18:30:06.861Z,95558.94
2019-03-30T18:32:38.514Z,95564.73
2019-03-30T18:35:11.129Z,95559.09
2019-03-30T18:37:43.501Z,95556.75
2019-03-30T18:40:28.851Z,95562.98
2019-03-30T18:43:02.964Z,95562.00
2019-03-30T18:45:35.262Z,95568.25
2019-03-30T18:48:17.897Z,95573.70
2019-03-30T18:50:50.340Z,95575.53
2019-03-30T18:53:22.430Z,95574.33
2019-03-30T18:55:54.695Z,95576.19
2019-03-30T18:58:40.963Z,95580.23
2019-03-30T19:01:01.669Z,95583.46
2019-03-30T19:03:33.792Z,95577.08
2019-03-30T19:06:06.186Z,95582.30
2019-03-30T19:08:38.223Z,95580.57
2019-03-30T19:11:10.398Z,95582.06
2019-03-30T19:13:42.497Z,95581.05
2019-03-30T19:16:14.658Z,95580.35
2019-03-30T19:18:46.758Z,95584.41
2019-03-30T19:21:18.926Z,95581.66
2019-03-30T19:23:51.015Z,95583.52
2019-03-30T19:26:24.181Z,95581.17
2019-03-30T19:28:56.943Z,95588.23
2019-03-30T19:31:29.087Z,95580.00
2019-03-30T19:34:01.804Z,95594.42
2019-03-30T19:36:33.652Z,95586.53
2019-03-30T19:39:09.013Z,95588.67
2019-03-30T19:41:41.268Z,95592.86
2019-03-30T19:44:13.525Z,95594.13
2019-03-30T19:46:45.388Z,95598.60
2019-03-30T19:49:17.181Z,95599.14
2019-03-30T19:51:49.409Z,95602.83
2019-03-30T19:54:21.486Z,95603.45
2019-03-30T19:56:53.613Z,95610.39
2019-03-30T19:59:25.478Z,95601.19
2019-03-30T20:01:57.772Z,95605.95
2019-03-30T20:04:29.757Z,95603.72
2019-03-30T20:07:01.762Z,95607.16
2019-03-30T20:09:33.816Z,95602.78
2019-03-30T20:12:06.346Z,95594.75
2019-03-30T20:14:38.395Z,95604.12
2019-03-30T20:17:10.485Z,95607.30
2019-03-30T20:19:42.648Z,95602.44
2019-03-30T20:22:15.648Z,95599.45
2019-03-30T20:24:47.601Z,95605.67
2019-03-30T20:27:20.044Z,95601.90
2019-03-30T20:29:51.893Z,95596.80
2019-03-30T20:32:53.007Z,95594.83
2019-03-30T20:35:25.105Z,95597.17
2019-03-30T20:37:57.170Z,95591.42
2019-03-30T20:40:29.388Z,95597.19
2019-03-30T20:43:01.483Z,95585.95
2019-03-30T20:45:33.427Z,95584.92
2019-03-30T20:48:05.352Z,95589.38
2019-03-30T20:50:37.176Z,95580.73
2019-03-30T20:53:09.177Z,95578.24
2019-03-30T20:55:41.385Z,95577.77
2019-03-30T20:58:13.375Z,95581.56
2019-03-30T21:00:45.668Z,95578.27
2019-03-30T21:03:17.740Z,95577.70
2019-03-30T21:05:49.992Z,95573.81
2019-03-30T21:08:21.835Z,95576.05
2019-03-30T21:10:53.639Z,95572.98
2019-03-30T21:13:25.495Z,95577.23
2019-03-30T21:15:57.447Z,95573.80
2019-03-30T21:18:29.503Z,95572.50
2019-03-30T21:21:01.633Z,95575.22
2019-03-30T21:23:33.785Z,95572.87
2019-03-30T21:26:06.771Z,95569.08
2019-03-30T21:28:40.148Z,95570.84
2019-03-30T21:31:11.912Z,95570.50
2019-03-30T21:33:44.214Z,95567.13
2019-03-30T21:36:16.396Z,95573.32
2019-03-30T21:38:48.585Z,95565.17
2019-03-30T21:41:20.837Z,95567.66
2019-03-30T21:43:52.873Z,95558.09
2019-03-30T21:46:25.068Z,95553.25
2019-03-30T21:48:57.039Z,95563.03
2019-03-30T21:51:29.163Z,95557.25
2019-03-30T21:54:01.102Z,95557.23
2019-03-30T21:56:33.107Z,95562.78
2019-03-30T21:59:05.388Z,95555.21
2019-03-30T22:01:37.499Z,95553.48
2019-03-30T22:04:09.715Z,95551.80
2019-03-30T22:06:42.429Z,95554.16
2019-03-30T22:09:14.364Z,95551.48
2019-03-30T22:11:46.420Z,95551.36
2019-03-30T22:14:18.599Z,95555.02
2019-03-30T22:16:50.602Z,95550.47
2019-03-30T22:19:22.585Z,95557.09
2019-03-30T22:21:54.539Z,95556.39
2019-03-30T22:24:26.637Z,95550.86
2019-03-30T22:26:58.684Z,95552.85
2019-03-30T22:29:30.481Z,95549.56
2019-03-30T22:32:02.431Z,95552.38
2019-03-30T22:34:34.547Z,95549.31
2019-03-30T22:37:06.566Z,95554.49
2019-03-30T22:39:38.903Z,95547.41
2019-03-30T22:42:10.961Z,95542.46
2019-03-30T22:44:42.865Z,95547.63
2019-03-30T22:47:14.998Z,95548.34
2019-03-30T22:49:47.035Z,95541.64
2019-03-30T22:52:20.473Z,95541.87
2019-03-30T22:54:52.357Z,95541.73
2019-03-30T22:57:24.516Z,95534.82
2019-03-30T22:59:56.658Z,95537.77
2019-03-30T23:02:28.563Z,95543.30
2019-03-30T23:05:01.190Z,95541.39
2019-03-30T23:07:34.514Z,95539.27
2019-03-30T23:10:07.311Z,95539.04
2019-03-30T23:12:39.488Z,95535.14
2019-03-30T23:15:11.487Z,95531.00
2019-03-30T23:17:43.587Z,95530.99
2019-03-30T23:20:15.534Z,95527.55
2019-03-30T23:22:48.509Z,95523.51
2019-03-30T23:25:20.648Z,95523.84
2019-03-30T23:27:52.874Z,95523.04
2019-03-30T23:30:24.871Z,95520.19
2019-03-30T23:32:57.008Z,95511.32
2019-03-30T23:35:29.092Z,95516.50
2019-03-30T23:38:01.195Z,95511.28
2019-03-30T23:40:33.068Z,95508.02
2019-03-30T23:43:05.394Z,95499.77
2019-03-30T23:45:37.577Z,95502.38
2019-03-30T23:48:09.846Z,95503.02
2019-03-30T23:50:42.099Z,95507.61
2019-03-30T23:53:14.251Z,95501.73
2019-03-30T23:55:46.487Z,95493.14
2019-03-30T23:58:18.665Z,95496.55
